Time;durP1;ratioP1;P1;durP2;ratioP2;P2;SDS_P1;SDS_P2;PMS_P1;PMS_P2;Temp;Humidity;BMP_temperature;BMP_pressure;BME280_temperature;BME280_humidity;BME280_pressure;Samples;Min_cycle;Max_cycle;Signal;HPM_P1;HPM_P2
2024/01/19 00:00:25;;;;;;;;;;;;;;;;;;5033186;28;892;-71
2024/01/19 00:02:50;;;;;;;;;;;;;;;;;;5031166;28;1208;-71
2024/01/19 00:05:18;;;;;;;;;;;;;;;;;;5033017;28;1055;-71
2024/01/19 00:07:43;;;;;;;;;;;;;;;;;;5015158;28;1944;-73
2024/01/19 00:10:09;;;;;;;;;;;;;;;;;;5015151;28;1578;-71
2024/01/19 00:12:35;;;;;;;;;;;;;;;;;;4999339;28;1334;-78
2024/01/19 00:15:01;;;;;;;;;;;;;;;;;;5034174;28;845;-77
2024/01/19 00:17:26;;;;;;;;;;;;;;;;;;5016151;28;1230;-78
2024/01/19 00:19:52;;;;;;;;;;;;;;;;;;5033184;28;1181;-78
2024/01/19 00:22:17;;;;;;;;;;;;;;;;;;5029701;28;1284;-78
2024/01/19 00:24:43;;;;;;;;;;;;;;;;;;5029123;28;1296;-77
2024/01/19 00:27:08;;;;;;;;;;;;;;;;;;5030296;28;1914;-78
2024/01/19 00:29:33;;;;;;;;;;;;;;;;;;5029502;28;1157;-78
2024/01/19 00:31:59;;;;;;;;;;;;;;;;;;5029190;28;1134;-71
2024/01/19 00:34:24;;;;;;;;;;;;;;;;;;5028973;28;1078;-71
2024/01/19 00:36:49;;;;;;;;;;;;;;;;;;5029327;28;1268;-70
2024/01/19 00:39:14;;;;;;;;;;;;;;;;;;5031508;28;1256;-71
2024/01/19 00:41:40;;;;;;;;;;;;;;;;;;5012573;28;1335;-71
2024/01/19 00:44:05;;;;;;;;;;;;;;;;;;5028527;28;1323;-71
2024/01/19 00:46:30;;;;;;;;;;;;;;;;;;5029149;28;2045;-72
2024/01/19 00:48:55;;;;;;;;;;;;;;;;;;5029450;28;1173;-72
2024/01/19 00:51:21;;;;;;;;;;;;;;;;;;5028292;28;1209;-71
2024/01/19 00:53:46;;;;;;;;;;;;;;;;;;5027558;28;1201;-71
2024/01/19 00:56:11;;;;;;;;;;;;;;;;;;5029232;28;1169;-72
2024/01/19 00:58:40;;;;;;;;;;;;;;;;;;5028734;28;1201;-71
2024/01/19 01:01:06;;;;;;;;;;;;;;;;;;5029589;28;1192;-78
2024/01/19 01:03:31;;;;;;;;;;;;;;;;;;5029794;28;1244;-77
2024/01/19 01:05:58;;;;;;;;;;;;;;;;;;5030596;28;1144;-78
2024/01/19 01:08:26;;;;;;;;;;;;;;;;;;5033859;28;1957;-77
2024/01/19 01:10:53;;;;;;;;;;;;;;;;;;5033233;28;880;-77
2024/01/19 01:13:18;;;;;;;;;;;;;;;;;;5032157;28;1163;-78
2024/01/19 01:15:43;;;;;;;;;;;;;;;;;;5033445;28;853;-78
2024/01/19 01:18:09;;;;;;;;;;;;;;;;;;5032830;28;957;-78
2024/01/19 01:20:34;;;;;;;;;;;;;;;;;;5032955;28;912;-78
2024/01/19 01:23:00;;;;;;;;;;;;;;;;;;5036160;28;992;-78
2024/01/19 01:25:25;;;;;;;;;;;;;;;;;;5036671;28;876;-77
2024/01/19 01:27:50;;;;;;;;;;;;;;;;;;5036199;28;1910;-71
2024/01/19 01:30:15;;;;;;;;;;;;;;;;;;5035872;28;963;-71
2024/01/19 01:32:40;;;;;;;;;;;;;;;;;;5035755;28;809;-72
2024/01/19 01:35:06;;;;;;;;;;;;;;;;;;5035954;28;899;-71
2024/01/19 01:37:31;;;;;;;;;;;;;;;;;;5017861;28;1297;-71
2024/01/19 01:39:56;;;;;;;;;;;;;;;;;;5036341;28;873;-71
2024/01/19 01:42:21;;;;;;;;;;;;;;;;;;5037834;28;1143;-71
2024/01/19 01:44:47;;;;;;;;;;;;;;;;;;5036375;28;1035;-71
2024/01/19 01:47:12;;;;;;;;;;;;;;;;;;5035305;28;1906;-71
2024/01/19 01:49:37;;;;;;;;;;;;;;;;;;5043665;28;829;-77
2024/01/19 01:52:03;;;;;;;;;;;;;;;;;;5063995;28;1156;-77
2024/01/19 01:54:28;;;;;;;;;;;;;;;;;;5035736;28;1654;-71
2024/01/19 01:56:54;;;;;;;;;;;;;;;;;;5035144;28;917;-71
2024/01/19 01:59:20;;;;;;;;;;;;;;;;;;5035262;28;841;-71
2024/01/19 02:01:46;;;;;;;;;;;;;;;;;;5035329;28;829;-71
2024/01/19 02:04:11;;;;;;;;;;;;;;;;;;5035523;28;801;-71
2024/01/19 02:06:38;;;;;;;;;;;;;;;;;;5035202;28;1961;-71
2024/01/19 02:09:04;;;;;;;;;;;;;;;;;;5035933;28;880;-71
2024/01/19 02:11:29;;;;;;;;;;;;;;;;;;5050483;28;1094;-71
2024/01/19 02:13:54;;;;;;;;;;;;;;;;;;5035104;28;841;-71
2024/01/19 02:16:20;;;;;;;;;;;;;;;;;;5051011;28;1251;-78
2024/01/19 02:18:45;;;;;;;;;;;;;;;;;;5035714;28;1178;-78
2024/01/19 02:21:10;;;;;;;;;;;;;;;;;;5034652;28;1302;-77
2024/01/19 02:23:37;;;;;;;;;;;;;;;;;;5051235;28;1228;-78
2024/01/19 02:26:04;;;;;;;;;;;;;;;;;;5036087;28;790;-77
2024/01/19 02:28:29;;;;;;;;;;;;;;;;;;5034161;28;1890;-78
2024/01/19 02:30:55;;;;;;;;;;;;;;;;;;5035767;28;959;-78
2024/01/19 02:33:20;;;;;;;;;;;;;;;;;;5033286;28;1427;-71
2024/01/19 02:35:45;;;;;;;;;;;;;;;;;;5034720;28;1000;-71
2024/01/19 02:38:11;;;;;;;;;;;;;;;;;;5034883;28;865;-71
2024/01/19 02:40:36;;;;;;;;;;;;;;;;;;5034053;28;1147;-78
2024/01/19 02:43:01;;;;;;;;;;;;;;;;;;5035856;28;860;-71
2024/01/19 02:45:26;;;;;;;;;;;;;;;;;;5034592;28;920;-71
2024/01/19 02:47:52;;;;;;;;;;;;;;;;;;5049605;28;1890;-71
2024/01/19 02:50:17;;;;;;;;;;;;;;;;;;5032945;28;1288;-71
2024/01/19 02:52:43;;;;;;;;;;;;;;;;;;5034207;28;850;-71
2024/01/19 02:55:08;;;;;;;;;;;;;;;;;;5034037;28;908;-72
2024/01/19 02:57:34;;;;;;;;;;;;;;;;;;5033816;28;1046;-71
2024/01/19 02:59:59;;;;;;;;;;;;;;;;;;5032709;28;1221;-71
2024/01/19 03:02:24;;;;;;;;;;;;;;;;;;5032780;28;1264;-70
2024/01/19 03:04:49;;;;;;;;;;;;;;;;;;5049140;28;1141;-71
2024/01/19 03:07:15;;;;;;;;;;;;;;;;;;5049027;28;1910;-71
2024/01/19 03:09:40;;;;;;;;;;;;;;;;;;5034332;28;833;-77
2024/01/19 03:12:06;;;;;;;;;;;;;;;;;;5035378;28;888;-78
2024/01/19 03:14:35;;;;;;;;;;;;;;;;;;5034154;28;999;-78
2024/01/19 03:17:00;;;;;;;;;;;;;;;;;;5032982;28;1072;-77
2024/01/19 03:19:25;;;;;;;;;;;;;;;;;;5049493;28;1300;-77
2024/01/19 03:21:50;;;;;;;;;;;;;;;;;;5034275;28;888;-78
2024/01/19 03:24:16;;;;;;;;;;;;;;;;;;5034324;28;912;-77
2024/01/19 03:26:42;;;;;;;;;;;;;;;;;;5034601;28;1919;-72
2024/01/19 03:29:07;;;;;;;;;;;;;;;;;;5033651;28;889;-71
2024/01/19 03:31:32;;;;;;;;;;;;;;;;;;5032442;28;1145;-72
2024/01/19 03:33:57;;;;;;;;;;;;;;;;;;5032125;28;1273;-71
2024/01/19 03:36:23;;;;;;;;;;;;;;;;;;5033751;28;979;-72
2024/01/19 03:38:48;;;;;;;;;;;;;;;;;;5048632;28;1236;-72
2024/01/19 03:41:13;;;;;;;;;;;;;;;;;;5032612;28;1413;-72
2024/01/19 03:43:38;;;;;;;;;;;;;;;;;;5048935;28;1244;-78
2024/01/19 03:46:03;;;;;;;;;;;;;;;;;;5032456;28;1355;-78
2024/01/19 03:48:29;;;;;;;;;;;;;;;;;;5034273;28;1910;-78
2024/01/19 03:50:54;;;;;;;;;;;;;;;;;;5034344;28;821;-78
2024/01/19 03:53:19;;;;;;;;;;;;;;;;;;5049466;28;1418;-78
2024/01/19 03:55:44;;;;;;;;;;;;;;;;;;5033973;28;896;-78
2024/01/19 03:58:10;;;;;;;;;;;;;;;;;;5033974;28;1058;-72
2024/01/19 04:00:35;;;;;;;;;;;;;;;;;;5033436;28;877;-71
2024/01/19 04:03:00;;;;;;;;;;;;;;;;;;5048811;28;1472;-72
2024/01/19 04:05:25;;;;;;;;;;;;;;;;;;5048362;28;1164;-71
2024/01/19 04:07:51;;;;;;;;;;;;;;;;;;5033233;28;1906;-72
2024/01/19 04:10:16;;;;;;;;;;;;;;;;;;5048710;28;1134;-71
2024/01/19 04:12:42;;;;;;;;;;;;;;;;;;5033773;28;931;-72
2024/01/19 04:15:07;;;;;;;;;;;;;;;;;;5048292;28;1343;-71
2024/01/19 04:17:32;;;;;;;;;;;;;;;;;;5033342;28;982;-72
2024/01/19 04:19:57;;;;;;;;;;;;;;;;;;5031752;28;1164;-72
2024/01/19 04:22:23;;;;;;;;;;;;;;;;;;5033434;28;860;-72
2024/01/19 04:24:48;;;;;;;;;;;;;;;;;;5031749;28;1248;-71
2024/01/19 04:27:13;;;;;;;;;;;;;;;;;;5033028;28;1902;-72
2024/01/19 04:29:39;;;;;;;;;;;;;;;;;;5033209;28;865;-72
2024/01/19 04:32:07;;;;;;;;;;;;;;;;;;5048437;28;1192;-71
2024/01/19 04:34:32;;;;;;;;;;;;;;;;;;5033372;28;1055;-72
2024/01/19 04:36:57;;;;;;;;;;;;;;;;;;5047896;28;1156;-72
2024/01/19 04:39:23;;;;;;;;;;;;;;;;;;5032765;28;828;-71
2024/01/19 04:41:48;;;;;;;;;;;;;;;;;;5033317;28;1220;-74
2024/01/19 04:44:14;;;;;;;;;;;;;;;;;;5033058;28;880;-71
2024/01/19 04:46:39;;;;;;;;;;;;;;;;;;5032673;28;1949;-72
2024/01/19 04:49:05;;;;;;;;;;;;;;;;;;5047670;28;1191;-71
2024/01/19 04:51:30;;;;;;;;;;;;;;;;;;5032958;28;825;-72
2024/01/19 04:53:58;;;;;;;;;;;;;;;;;;5032586;28;888;-71
2024/01/19 04:56:23;;;;;;;;;;;;;;;;;;5032822;28;1183;-71
2024/01/19 04:58:48;;;;;;;;;;;;;;;;;;5034960;28;1257;-71
2024/01/19 05:01:14;;;;;;;;;;;;;;;;;;5053042;28;1239;-71
2024/01/19 05:03:41;;;;;;;;;;;;;;;;;;5033387;28;1264;-71
2024/01/19 05:06:06;;;;;;;;;;;;;;;;;;5012976;28;1441;-72
2024/01/19 05:08:31;;;;;;;;;;;;;;;;;;5017174;28;1902;-72
2024/01/19 05:10:56;;;;;;;;;;;;;;;;;;4998109;28;1275;-72
2024/01/19 05:13:22;;;;;;;;;;;;;;;;;;5013157;28;1212;-71
2024/01/19 05:15:47;;;;;;;;;;;;;;;;;;5014291;28;821;-72
2024/01/19 05:18:12;;;;;;;;;;;;;;;;;;5012929;28;1335;-72
2024/01/19 05:20:38;;;;;;;;;;;;;;;;;;5016200;28;817;-72
2024/01/19 05:23:03;;;;;;;;;;;;;;;;;;5016052;28;797;-72
2024/01/19 05:25:28;;;;;;;;;;;;;;;;;;5016206;28;1055;-71
2024/01/19 05:27:55;;;;;;;;;;;;;;;;;;5015976;28;1906;-72
2024/01/19 05:30:20;;;;;;;;;;;;;;;;;;5016314;28;868;-72
2024/01/19 05:32:45;;;;;;;;;;;;;;;;;;5014562;28;1192;-78
2024/01/19 05:35:11;;;;;;;;;;;;;;;;;;5017112;28;778;-78
2024/01/19 05:37:37;;;;;;;;;;;;;;;;;;5016812;28;904;-78
2024/01/19 05:40:03;;;;;;;;;;;;;;;;;;5016719;28;893;-78
2024/01/19 05:42:28;;;;;;;;;;;;;;;;;;5015614;28;1449;-78
2024/01/19 05:44:54;;;;;;;;;;;;;;;;;;5016698;28;995;-78
2024/01/19 05:47:19;;;;;;;;;;;;;;;;;;4998706;28;1902;-78
2024/01/19 05:49:44;;;;;;;;;;;;;;;;;;5016308;28;1235;-77
2024/01/19 05:52:09;;;;;;;;;;;;;;;;;;5017024;28;782;-77
2024/01/19 05:54:34;;;;;;;;;;;;;;;;;;5017011;28;877;-77
2024/01/19 05:57:00;;;;;;;;;;;;;;;;;;5016687;28;1059;-77
2024/01/19 05:59:25;;;;;;;;;;;;;;;;;;5017299;28;900;-77
2024/01/19 06:01:50;;;;;;;;;;;;;;;;;;5015506;28;1177;-78
2024/01/19 06:04:16;;;;;;;;;;;;;;;;;;4999041;28;1173;-77
2024/01/19 06:06:41;;;;;;;;;;;;;;;;;;5016528;28;1902;-78
2024/01/19 06:09:07;;;;;;;;;;;;;;;;;;5016211;28;995;-79
2024/01/19 06:11:33;;;;;;;;;;;;;;;;;;4998956;28;1215;-78
2024/01/19 06:13:58;;;;;;;;;;;;;;;;;;5016822;28;895;-78
2024/01/19 06:16:23;;;;;;;;;;;;;;;;;;5016289;28;959;-78
2024/01/19 06:18:48;;;;;;;;;;;;;;;;;;5016311;28;903;-77
2024/01/19 06:21:13;;;;;;;;;;;;;;;;;;5016207;28;836;-71
2024/01/19 06:23:39;;;;;;;;;;;;;;;;;;5015292;28;912;-71
2024/01/19 06:26:08;;;;;;;;;;;;;;;;;;5015603;28;785;-71
2024/01/19 06:28:33;;;;;;;;;;;;;;;;;;5015626;28;1969;-71
2024/01/19 06:30:59;;;;;;;;;;;;;;;;;;4997527;28;1165;-71
2024/01/19 06:33:24;;;;;;;;;;;;;;;;;;4997200;28;1306;-78
2024/01/19 06:35:49;;;;;;;;;;;;;;;;;;5015885;28;836;-77
2024/01/19 06:38:15;;;;;;;;;;;;;;;;;;5014977;28;833;-71
2024/01/19 06:40:40;;;;;;;;;;;;;;;;;;4996849;28;1302;-71
2024/01/19 06:43:05;;;;;;;;;;;;;;;;;;5028252;28;1355;-71
2024/01/19 06:45:30;;;;;;;;;;;;;;;;;;5011393;28;1268;-70
2024/01/19 06:47:55;;;;;;;;;;;;;;;;;;5030034;28;1902;-71
2024/01/19 06:50:22;;;;;;;;;;;;;;;;;;5030429;28;1268;-71
2024/01/19 06:52:47;;;;;;;;;;;;;;;;;;5029789;28;1278;-70
2024/01/19 06:55:13;;;;;;;;;;;;;;;;;;5029306;28;1165;-71
2024/01/19 06:57:38;;;;;;;;;;;;;;;;;;5031313;28;1229;-71
2024/01/19 07:00:03;;;;;;;;;;;;;;;;;;5030041;28;1157;-71
2024/01/19 07:02:29;;;;;;;;;;;;;;;;;;5030292;28;1157;-71
2024/01/19 07:04:54;;;;;;;;;;;;;;;;;;5027097;28;1387;-71
2024/01/19 07:07:19;;;;;;;;;;;;;;;;;;5027482;28;1914;-71
2024/01/19 07:09:44;;;;;;;;;;;;;;;;;;5029071;28;1302;-71
2024/01/19 07:12:10;;;;;;;;;;;;;;;;;;5031710;28;829;-71
2024/01/19 07:14:35;;;;;;;;;;;;;;;;;;5014851;28;1177;-70
2024/01/19 07:17:00;;;;;;;;;;;;;;;;;;5032187;28;1008;-71
2024/01/19 07:19:26;;;;;;;;;;;;;;;;;;5014687;28;1309;-71
2024/01/19 07:21:51;;;;;;;;;;;;;;;;;;5032118;28;810;-70
2024/01/19 07:24:16;;;;;;;;;;;;;;;;;;5031589;28;952;-70
2024/01/19 07:26:42;;;;;;;;;;;;;;;;;;5013629;28;1898;-70
2024/01/19 07:29:09;;;;;;;;;;;;;;;;;;5031389;28;1031;-72
2024/01/19 07:31:35;;;;;;;;;;;;;;;;;;5032833;28;845;-71
2024/01/19 07:34:00;;;;;;;;;;;;;;;;;;5033223;28;825;-77
2024/01/19 07:36:26;;;;;;;;;;;;;;;;;;5034214;28;1046;-76
2024/01/19 07:38:51;;;;;;;;;;;;;;;;;;5034490;28;991;-77
2024/01/19 07:41:16;;;;;;;;;;;;;;;;;;5033054;28;1296;-77
2024/01/19 07:43:42;;;;;;;;;;;;;;;;;;5032982;28;1417;-77
2024/01/19 07:46:07;;;;;;;;;;;;;;;;;;5035517;28;865;-77
2024/01/19 07:48:32;;;;;;;;;;;;;;;;;;5033093;28;1910;-77
2024/01/19 07:50:57;;;;;;;;;;;;;;;;;;5032899;28;1164;-77
2024/01/19 07:53:22;;;;;;;;;;;;;;;;;;5016114;28;1249;-77
2024/01/19 07:55:48;;;;;;;;;;;;;;;;;;5033720;28;892;-77
2024/01/19 07:58:13;;;;;;;;;;;;;;;;;;5016209;28;1112;-77
2024/01/19 08:00:40;;;;;;;;;;;;;;;;;;5015677;28;1303;-76
2024/01/19 08:03:05;;;;;;;;;;;;;;;;;;5032688;28;817;-77
2024/01/19 08:05:30;;;;;;;;;;;;;;;;;;5033333;28;793;-77
2024/01/19 08:07:55;;;;;;;;;;;;;;;;;;5033607;28;1969;-77
2024/01/19 08:10:21;;;;;;;;;;;;;;;;;;5015252;28;1427;-77
2024/01/19 08:12:46;;;;;;;;;;;;;;;;;;5033000;28;874;-77
2024/01/19 08:15:12;;;;;;;;;;;;;;;;;;5033414;28;840;-76
2024/01/19 08:17:37;;;;;;;;;;;;;;;;;;5032248;28;1180;-77
2024/01/19 08:20:02;;;;;;;;;;;;;;;;;;5033615;28;805;-71
2024/01/19 08:22:27;;;;;;;;;;;;;;;;;;5032563;28;900;-71
2024/01/19 08:24:53;;;;;;;;;;;;;;;;;;5030428;28;1134;-71
2024/01/19 08:27:18;;;;;;;;;;;;;;;;;;5032486;28;1898;-73
2024/01/19 08:29:45;;;;;;;;;;;;;;;;;;5039688;28;1255;-71
2024/01/19 08:32:10;;;;;;;;;;;;;;;;;;5012616;28;1287;-71
2024/01/19 08:34:35;;;;;;;;;;;;;;;;;;5033246;28;1248;-71
2024/01/19 08:37:00;;;;;;;;;;;;;;;;;;5032959;28;1149;-70
2024/01/19 08:39:26;;;;;;;;;;;;;;;;;;5031918;28;1320;-71
2024/01/19 08:41:51;;;;;;;;;;;;;;;;;;5032007;28;1379;-71
2024/01/19 08:44:16;;;;;;;;;;;;;;;;;;5036175;28;1117;-71
2024/01/19 08:46:42;;;;;;;;;;;;;;;;;;5036532;28;1987;-71
2024/01/19 08:49:08;;;;;;;;;;;;;;;;;;5035014;28;1385;-71
2024/01/19 08:51:33;;;;;;;;;;;;;;;;;;5036693;28;892;-71
2024/01/19 08:53:58;;;;;;;;;;;;;;;;;;5035135;28;1159;-71
2024/01/19 08:56:23;;;;;;;;;;;;;;;;;;5051717;28;1380;-70
2024/01/19 08:58:49;;;;;;;;;;;;;;;;;;5035280;28;1183;-71
2024/01/19 09:01:17;;;;;;;;;;;;;;;;;;5034809;28;1192;-71
2024/01/19 09:03:43;;;;;;;;;;;;;;;;;;5033616;28;1200;-71
2024/01/19 09:06:08;;;;;;;;;;;;;;;;;;5032558;28;1237;-72
2024/01/19 09:08:33;;;;;;;;;;;;;;;;;;5011415;28;1972;-72
2024/01/19 09:10:58;;;;;;;;;;;;;;;;;;5028963;28;1224;-72
2024/01/19 09:13:23;;;;;;;;;;;;;;;;;;5031785;28;1113;-71
2024/01/19 09:15:49;;;;;;;;;;;;;;;;;;5033910;28;995;-71
2024/01/19 09:18:15;;;;;;;;;;;;;;;;;;5016433;28;1193;-71
2024/01/19 09:20:40;;;;;;;;;;;;;;;;;;5034378;28;860;-71
2024/01/19 09:23:05;;;;;;;;;;;;;;;;;;5035093;28;916;-71
2024/01/19 09:25:31;;;;;;;;;;;;;;;;;;5035879;28;845;-71
2024/01/19 09:27:57;;;;;;;;;;;;;;;;;;5035906;28;1910;-71
2024/01/19 09:30:22;;;;;;;;;;;;;;;;;;5017929;28;1350;-70
2024/01/19 09:32:47;;;;;;;;;;;;;;;;;;5036008;28;904;-71
2024/01/19 09:35:13;;;;;;;;;;;;;;;;;;5017784;28;1401;-71
2024/01/19 09:37:38;;;;;;;;;;;;;;;;;;5034944;28;853;-71
2024/01/19 09:40:04;;;;;;;;;;;;;;;;;;5035713;28;955;-71
2024/01/19 09:42:32;;;;;;;;;;;;;;;;;;5017346;28;1407;-71
2024/01/19 09:45:02;;;;;;;;;;;;;;;;;;5035538;28;872;-71
2024/01/19 09:47:31;;;;;;;;;;;;;;;;;;5018149;28;1949;-71
2024/01/19 09:49:56;;;;;;;;;;;;;;;;;;5035643;28;853;-71
2024/01/19 09:52:25;;;;;;;;;;;;;;;;;;5034157;28;1262;-71
2024/01/19 09:54:50;;;;;;;;;;;;;;;;;;5032696;28;1217;-70
2024/01/19 09:57:16;;;;;;;;;;;;;;;;;;5030768;28;1286;-71
2024/01/19 09:59:41;;;;;;;;;;;;;;;;;;5012689;28;1251;-71
2024/01/19 10:02:08;;;;;;;;;;;;;;;;;;5031643;28;1114;-71
2024/01/19 10:04:34;;;;;;;;;;;;;;;;;;5014066;28;1300;-71
2024/01/19 10:07:01;;;;;;;;;;;;;;;;;;5013923;28;1906;-71
2024/01/19 10:09:26;;;;;;;;;;;;;;;;;;5029945;28;1371;-71
2024/01/19 10:11:53;;;;;;;;;;;;;;;;;;5031836;28;1343;-71
2024/01/19 10:14:19;;;;;;;;;;;;;;;;;;5034440;28;821;-71
2024/01/19 10:16:44;;;;;;;;;;;;;;;;;;5034861;28;899;-71
2024/01/19 10:19:13;;;;;;;;;;;;;;;;;;5034646;28;971;-71
2024/01/19 10:21:39;;;;;;;;;;;;;;;;;;5033517;28;1293;-71
2024/01/19 10:24:08;;;;;;;;;;;;;;;;;;5033806;28;837;-71
2024/01/19 10:26:33;;;;;;;;;;;;;;;;;;5034467;28;1890;-71
2024/01/19 10:29:07;;;;;;;;;;;;;;;;;;5034541;28;887;-71
2024/01/19 10:31:33;;;;;;;;;;;;;;;;;;5016726;28;1310;-71
2024/01/19 10:33:58;;;;;;;;;;;;;;;;;;5034558;28;869;-71
2024/01/19 10:36:24;;;;;;;;;;;;;;;;;;5049371;28;1417;-71
2024/01/19 10:38:50;;;;;;;;;;;;;;;;;;5034317;28;842;-71
2024/01/19 10:41:22;;;;;;;;;;;;;;;;;;5030586;28;1529;-71
2024/01/19 10:43:47;;;;;;;;;;;;;;;;;;5030861;28;1162;-71
2024/01/19 10:46:19;;;;;;;;;;;;;;;;;;5034119;28;1010;-72
2024/01/19 10:48:46;;;;;;;;;;;;;;;;;;5032370;28;1965;-71
2024/01/19 10:51:12;;;;;;;;;;;;;;;;;;5049483;28;1345;-72
2024/01/19 10:53:37;;;;;;;;;;;;;;;;;;5016183;28;1204;-71
2024/01/19 10:56:04;;;;;;;;;;;;;;;;;;5049293;28;1141;-71
2024/01/19 10:58:32;;;;;;;;;;;;;;;;;;5048646;28;1125;-71
2024/01/19 11:01:11;;;;;;;;;;;;;;;;;;5032443;28;860;-71
2024/01/19 11:03:36;;;;;;;;;;;;;;;;;;5032768;28;892;-71
2024/01/19 11:06:03;;;;;;;;;;;;;;;;;;5032031;28;1237;-71
2024/01/19 11:08:31;;;;;;;;;;;;;;;;;;5027795;28;1989;-71
2024/01/19 11:10:57;;;;;;;;;;;;;;;;;;5027455;28;1133;-71
2024/01/19 11:13:24;;;;;;;;;;;;;;;;;;5010990;28;1229;-71
2024/01/19 11:15:53;;;;;;;;;;;;;;;;;;5013983;28;1261;-71
2024/01/19 11:18:19;;;;;;;;;;;;;;;;;;5013934;28;1255;-71
2024/01/19 11:20:45;;;;;;;;;;;;;;;;;;5014496;28;1276;-71
2024/01/19 11:23:11;;;;;;;;;;;;;;;;;;5032179;28;1181;-71
2024/01/19 11:25:54;;;;;;;;;;;;;;;;;;5030679;28;1196;-70
2024/01/19 11:28:24;;;;;;;;;;;;;;;;;;5030059;28;1906;-71
2024/01/19 11:31:00;;;;;;;;;;;;;;;;;;5030538;28;1150;-71
2024/01/19 11:33:29;;;;;;;;;;;;;;;;;;5030484;28;1137;-71
2024/01/19 11:35:54;;;;;;;;;;;;;;;;;;5030461;28;1197;-71
2024/01/19 11:38:38;;;;;;;;;;;;;;;;;;5030017;28;1153;-71
2024/01/19 11:41:03;;;;;;;;;;;;;;;;;;5030466;28;1192;-71
2024/01/19 11:43:35;;;;;;;;;;;;;;;;;;5030664;28;1161;-72
2024/01/19 11:46:00;;;;;;;;;;;;;;;;;;5029238;28;1278;-71
2024/01/19 11:48:40;;;;;;;;;;;;;;;;;;5027142;28;1989;-70
2024/01/19 11:51:05;;;;;;;;;;;;;;;;;;5027331;28;1304;-71
2024/01/19 11:53:49;;;;;;;;;;;;;;;;;;5027875;28;1162;-72
2024/01/19 11:56:21;;;;;;;;;;;;;;;;;;5030132;28;1154;-71
2024/01/19 11:58:47;;;;;;;;;;;;;;;;;;5029943;28;1169;-71
2024/01/19 12:01:12;;;;;;;;;;;;;;;;;;5030418;28;1110;-72
2024/01/19 12:03:38;;;;;;;;;;;;;;;;;;5030630;28;1196;-71
2024/01/19 12:06:04;;;;;;;;;;;;;;;;;;5030000;28;1138;-71
2024/01/19 12:08:29;;;;;;;;;;;;;;;;;;5008991;28;1911;-71
2024/01/19 12:11:08;;;;;;;;;;;;;;;;;;5027366;28;1157;-71
2024/01/19 12:13:35;;;;;;;;;;;;;;;;;;5009662;28;1276;-71
2024/01/19 12:16:01;;;;;;;;;;;;;;;;;;5028417;28;1200;-71
2024/01/19 12:18:27;;;;;;;;;;;;;;;;;;5028441;28;1157;-70
2024/01/19 12:20:53;;;;;;;;;;;;;;;;;;5028716;28;1212;-72
2024/01/19 12:23:19;;;;;;;;;;;;;;;;;;5031308;28;845;-71
2024/01/19 12:25:44;;;;;;;;;;;;;;;;;;5015122;28;1291;-71
2024/01/19 12:28:09;;;;;;;;;;;;;;;;;;5032929;28;1975;-71
2024/01/19 12:30:35;;;;;;;;;;;;;;;;;;5032581;28;892;-71
2024/01/19 12:33:16;;;;;;;;;;;;;;;;;;5015133;28;1341;-71
2024/01/19 12:35:42;;;;;;;;;;;;;;;;;;5032319;28;872;-72
2024/01/19 12:38:07;;;;;;;;;;;;;;;;;;5013986;28;1414;-71
2024/01/19 12:40:33;;;;;;;;;;;;;;;;;;5014022;28;1133;-70
2024/01/19 12:43:03;;;;;;;;;;;;;;;;;;5014654;28;1294;-71
2024/01/19 12:45:28;;;;;;;;;;;;;;;;;;5032465;28;1034;-70
2024/01/19 12:47:54;;;;;;;;;;;;;;;;;;5014940;28;1887;-71
2024/01/19 12:50:19;;;;;;;;;;;;;;;;;;5032545;28;817;-71
2024/01/19 12:52:45;;;;;;;;;;;;;;;;;;5014907;28;1145;-71
2024/01/19 12:55:10;;;;;;;;;;;;;;;;;;5032736;28;903;-71
2024/01/19 12:57:36;;;;;;;;;;;;;;;;;;5031964;28;1257;-71
2024/01/19 13:00:06;;;;;;;;;;;;;;;;;;5029080;28;1168;-71
2024/01/19 13:02:31;;;;;;;;;;;;;;;;;;5029582;28;1228;-72
2024/01/19 13:04:56;;;;;;;;;;;;;;;;;;5029017;28;1094;-71
2024/01/19 13:07:22;;;;;;;;;;;;;;;;;;5031661;28;1983;-71
2024/01/19 13:09:59;;;;;;;;;;;;;;;;;;5011541;28;1275;-71
2024/01/19 13:12:24;;;;;;;;;;;;;;;;;;5018679;28;1162;-71
2024/01/19 13:14:49;;;;;;;;;;;;;;;;;;5015552;28;1189;-70
2024/01/19 13:17:22;;;;;;;;;;;;;;;;;;5030724;28;1353;-70
2024/01/19 13:19:47;;;;;;;;;;;;;;;;;;5014889;28;1548;-71
2024/01/19 13:22:13;;;;;;;;;;;;;;;;;;5033198;28;1264;-70
2024/01/19 13:24:38;;;;;;;;;;;;;;;;;;5032793;28;1114;-71
2024/01/19 13:27:03;;;;;;;;;;;;;;;;;;5033298;28;1894;-71
2024/01/19 13:29:29;;;;;;;;;;;;;;;;;;5033472;28;1153;-70
2024/01/19 13:31:54;;;;;;;;;;;;;;;;;;5014028;28;1362;-70
2024/01/19 13:34:26;;;;;;;;;;;;;;;;;;5023877;28;1533;-70
2024/01/19 13:36:51;;;;;;;;;;;;;;;;;;5032535;28;1200;-70
2024/01/19 13:39:16;;;;;;;;;;;;;;;;;;5032006;28;1157;-70
2024/01/19 13:41:42;;;;;;;;;;;;;;;;;;5013199;28;1233;-70
2024/01/19 13:44:07;;;;;;;;;;;;;;;;;;5016231;28;1423;-71
2024/01/19 13:46:33;;;;;;;;;;;;;;;;;;5018103;28;1577;-71
2024/01/19 13:48:58;;;;;;;;;;;;;;;;;;5017468;28;1971;-70
2024/01/19 13:51:23;;;;;;;;;;;;;;;;;;5035773;28;702;-71
2024/01/19 13:53:49;;;;;;;;;;;;;;;;;;5035720;28;904;-71
2024/01/19 13:56:14;;;;;;;;;;;;;;;;;;5014014;28;1221;-71
2024/01/19 13:58:40;;;;;;;;;;;;;;;;;;4998256;28;1173;-71
2024/01/19 14:01:06;;;;;;;;;;;;;;;;;;5015717;28;838;-71
2024/01/19 14:03:32;;;;;;;;;;;;;;;;;;4997925;28;1186;-71
2024/01/19 14:05:57;;;;;;;;;;;;;;;;;;4997601;28;1358;-71
2024/01/19 14:08:23;;;;;;;;;;;;;;;;;;5013849;28;1890;-71
2024/01/19 14:10:49;;;;;;;;;;;;;;;;;;5010655;28;1174;-71
2024/01/19 14:13:15;;;;;;;;;;;;;;;;;;5010795;28;1209;-71
2024/01/19 14:15:40;;;;;;;;;;;;;;;;;;5012289;28;1166;-71
2024/01/19 14:18:06;;;;;;;;;;;;;;;;;;5013296;28;1322;-71
2024/01/19 14:20:31;;;;;;;;;;;;;;;;;;5014737;28;817;-71
2024/01/19 14:22:56;;;;;;;;;;;;;;;;;;4997571;28;1118;-71
2024/01/19 14:25:21;;;;;;;;;;;;;;;;;;4997116;28;1402;-70
2024/01/19 14:27:46;;;;;;;;;;;;;;;;;;5013603;28;1963;-71
2024/01/19 14:30:12;;;;;;;;;;;;;;;;;;5012621;28;1421;-71
2024/01/19 14:32:38;;;;;;;;;;;;;;;;;;5013985;28;1150;-71
2024/01/19 14:35:04;;;;;;;;;;;;;;;;;;5015017;28;825;-71
2024/01/19 14:37:29;;;;;;;;;;;;;;;;;;4997388;28;1323;-71
2024/01/19 14:39:54;;;;;;;;;;;;;;;;;;5000884;28;1302;-71
2024/01/19 14:42:20;;;;;;;;;;;;;;;;;;5013069;28;1174;-70
2024/01/19 14:44:45;;;;;;;;;;;;;;;;;;5014553;28;1067;-70
2024/01/19 14:47:10;;;;;;;;;;;;;;;;;;5015006;28;1898;-70
2024/01/19 14:49:36;;;;;;;;;;;;;;;;;;4996899;28;1240;-71
2024/01/19 14:52:02;;;;;;;;;;;;;;;;;;5014671;28;959;-70
2024/01/19 14:54:28;;;;;;;;;;;;;;;;;;4997158;28;1167;-71
2024/01/19 14:56:54;;;;;;;;;;;;;;;;;;4996849;28;1214;-71
2024/01/19 14:59:19;;;;;;;;;;;;;;;;;;4997012;28;1292;-71
2024/01/19 15:01:44;;;;;;;;;;;;;;;;;;5013167;28;1117;-71
2024/01/19 15:04:10;;;;;;;;;;;;;;;;;;5014358;28;982;-71
2024/01/19 15:06:35;;;;;;;;;;;;;;;;;;5014643;28;876;-70
2024/01/19 15:09:00;;;;;;;;;;;;;;;;;;4997067;28;1910;-71
2024/01/19 15:11:26;;;;;;;;;;;;;;;;;;5019389;28;1243;-71
2024/01/19 15:13:52;;;;;;;;;;;;;;;;;;5029109;28;1135;-72
2024/01/19 15:16:17;;;;;;;;;;;;;;;;;;5029372;28;1221;-71
2024/01/19 15:18:42;;;;;;;;;;;;;;;;;;5033151;28;1229;-78
2024/01/19 15:21:07;;;;;;;;;;;;;;;;;;5031741;28;1429;-78
2024/01/19 15:23:32;;;;;;;;;;;;;;;;;;5032914;28;896;-71
2024/01/19 15:25:58;;;;;;;;;;;;;;;;;;5031199;28;1168;-70
2024/01/19 15:28:23;;;;;;;;;;;;;;;;;;5031880;28;1909;-78
2024/01/19 15:30:48;;;;;;;;;;;;;;;;;;5003090;28;1248;-78
2024/01/19 15:33:16;;;;;;;;;;;;;;;;;;5030182;28;1146;-78
2024/01/19 15:35:41;;;;;;;;;;;;;;;;;;5020853;28;1290;-78
2024/01/19 15:38:06;;;;;;;;;;;;;;;;;;5030487;28;1146;-77
2024/01/19 15:40:32;;;;;;;;;;;;;;;;;;5028420;28;1323;-78
2024/01/19 15:42:57;;;;;;;;;;;;;;;;;;5029312;28;1257;-78
2024/01/19 15:45:22;;;;;;;;;;;;;;;;;;5033978;28;1302;-71
2024/01/19 15:47:47;;;;;;;;;;;;;;;;;;5033769;28;1974;-72
2024/01/19 15:50:16;;;;;;;;;;;;;;;;;;5033100;28;912;-71
2024/01/19 15:52:41;;;;;;;;;;;;;;;;;;5033190;28;884;-71
2024/01/19 15:55:06;;;;;;;;;;;;;;;;;;5033704;28;808;-70
2024/01/19 15:57:31;;;;;;;;;;;;;;;;;;5033504;28;920;-71
2024/01/19 15:59:57;;;;;;;;;;;;;;;;;;5033199;28;908;-71
2024/01/19 16:02:22;;;;;;;;;;;;;;;;;;5033084;28;782;-71
2024/01/19 16:04:47;;;;;;;;;;;;;;;;;;5033439;28;975;-71
2024/01/19 16:07:12;;;;;;;;;;;;;;;;;;5033359;28;1961;-71
2024/01/19 16:09:37;;;;;;;;;;;;;;;;;;5032968;28;895;-70
2024/01/19 16:12:03;;;;;;;;;;;;;;;;;;5014404;28;1216;-70
2024/01/19 16:14:29;;;;;;;;;;;;;;;;;;5011307;28;1284;-71
2024/01/19 16:16:54;;;;;;;;;;;;;;;;;;5027841;28;1209;-77
2024/01/19 16:19:19;;;;;;;;;;;;;;;;;;5030051;28;1205;-70
2024/01/19 16:21:49;;;;;;;;;;;;;;;;;;5028445;28;1165;-71
2024/01/19 16:24:17;;;;;;;;;;;;;;;;;;5028857;28;1133;-70
2024/01/19 16:26:44;;;;;;;;;;;;;;;;;;5011132;28;1380;-70
2024/01/19 16:29:09;;;;;;;;;;;;;;;;;;5029130;28;1213;-71
2024/01/19 16:31:34;;;;;;;;;;;;;;;;;;5029380;28;1185;-70
2024/01/19 16:34:00;;;;;;;;;;;;;;;;;;5030338;28;1205;-70
2024/01/19 16:36:25;;;;;;;;;;;;;;;;;;5029675;28;1224;-71
2024/01/19 16:38:51;;;;;;;;;;;;;;;;;;5029952;28;1133;-71
2024/01/19 16:41:16;;;;;;;;;;;;;;;;;;5029575;28;1190;-70
2024/01/19 16:43:41;;;;;;;;;;;;;;;;;;5030048;28;1165;-70
2024/01/19 16:46:06;;;;;;;;;;;;;;;;;;5031978;28;1149;-70
2024/01/19 16:48:32;;;;;;;;;;;;;;;;;;5031831;28;1890;-70
2024/01/19 16:50:59;;;;;;;;;;;;;;;;;;5032759;28;865;-70
2024/01/19 16:53:25;;;;;;;;;;;;;;;;;;5052080;28;1073;-70
2024/01/19 16:55:50;;;;;;;;;;;;;;;;;;5037260;28;912;-70
2024/01/19 16:58:17;;;;;;;;;;;;;;;;;;5037509;28;876;-70